Flight Track Log - Related Links

Times and Time Zones

All times are in EDT time to prevent confusion due to time zone crossing. See the N2019A flight status page for this flight to view local times or setup timezone preferences in your user account.

Time Position Orientation Groundspeed Altitude Reporting Facility
EDT Latitude Longitude Course Direction KTS MPH feet Rate Location/Type
Mon 02:11:00 PM 28.4446 -82.4781 215° Southwest  Level FlightAware Approximate
Mon 02:12:00 PM 28.4138 -82.5029 221° Southwest  Level FlightAware Approximate
Mon 02:13:00 PM 28.3873 -82.5294 221° Southwest  Level FlightAware Approximate
Mon 02:14:00 PM 28.3609 -82.5558 221° Southwest  Level FlightAware Approximate
Mon 02:15:00 PM 28.3297 -82.5715 192° South  Level FlightAware Approximate
Mon 02:16:00 PM 28.2952 -82.5797 192° South  Level FlightAware Approximate
Mon 02:17:00 PM 28.2608 -82.5880 192° South  Level FlightAware Approximate
Mon 02:18:00 PM 28.2263 -82.5962 192° South  Level FlightAware Approximate
Mon 02:19:00 PM 28.1918 -82.6044 192° South  Level FlightAware Approximate
Mon 02:20:00 PM 28.1574 -82.6126 192° South  Level FlightAware Approximate
Mon 02:21:00 PM 28.1229 -82.6208 192° South  Level FlightAware Approximate
Mon 02:22:00 PM 28.0884 -82.6290 192° South  Level FlightAware Approximate
Mon 02:23:00 PM 28.0539 -82.6372 192° South  Level FlightAware Approximate
Mon 02:24:00 PM 28.0195 -82.6454 192° South  Level FlightAware Approximate
Mon 02:25:00 PM 27.9885 -82.6615 221° Southwest  Level FlightAware Approximate
Mon 02:26:00 PM 27.9554 -82.6722 190° South  Level FlightAware Approximate
Mon 02:27:00 PM 27.9207 -82.6792 190° South  Level FlightAware Approximate
Mon 02:28:00 PM 27.9000 -82.6833 North  Level FlightAware Approximate
Mon 02:29:00 PM 27.9000 -82.7232 270° West  Level FlightAware Approximate
Mon 02:30:00 PM 27.9000 -82.6833 90° East  Level FlightAware Approximate
Mon 02:31:00 PM 27.9100 -82.6875 North  Level Estimated
Mon 02:32:00 PM 27.9100 -82.6875 160° South  Level Estimated
Mon 02:33:00 PM 27.9100 -82.6875 160° South  Level Estimated
Mon 02:34:00 PM 27.9100 -82.6875 North  Level Estimated
Mon 02:35:00 PM 27.9100 -82.6875 160° South  Level Estimated
Mon 02:36:00 PM 27.9100 -82.6875 160° South  Level Estimated
Mon 02:36:34 PM 28.4833 -82.4500 160° South 84 97 500  Level Tampa TRACON
Mon 02:37:00 PM 27.9100 -82.6875 North  Level Estimated
Mon 02:37:40 PM 28.4833 -82.4833 270° West 127 146 1,200  Level Tampa TRACON
Mon 02:38:00 PM 27.9100 -82.6875 160° South  Level Estimated
Mon 02:38:41 PM 28.4833 -82.5167 270° West 135 155 1,900  Level Tampa TRACON
Mon 02:39:00 PM 27.9100 -82.6875 160° South  Level Estimated
Mon 02:39:46 PM 28.4667 -82.5667 249° West 141 162 2,000  Level Tampa TRACON
Mon 02:40:00 PM 27.9100 -82.6875 North  Level Estimated
Mon 02:40:47 PM 28.4667 -82.6167 270° West 132 152 2,000  Level Tampa TRACON
Mon 02:41:00 PM 27.9100 -82.6875 160° South  Level Estimated
Mon 02:41:41 PM 28.4500 -82.6333 221° Southwest 120 138 2,200  Level Tampa TRACON
Mon 02:42:41 PM 28.4333 -82.6667 240° Southwest 119 137 2,600 400 Climbing Tampa TRACON
Mon 02:43:41 PM 28.4000 -82.6833 204° Southwest 122 140 3,000 150 Climbing Tampa TRACON
Mon 02:44:41 PM 28.3667 -82.7000 204° Southwest 139 160 2,900 -50 Descending Tampa TRACON
Mon 02:45:41 PM 28.3333 -82.7167 204° Southwest 136 157 2,900 50 Level Tampa TRACON
Mon 02:46:41 PM 28.3000 -82.7333 204° Southwest 139 160 3,000 50 Climbing Tampa TRACON
Mon 02:47:41 PM 28.2667 -82.7500 204° Southwest 133 153 3,000  Level Tampa TRACON
Mon 02:48:35 PM 28.2333 -82.7500 180° South 131 151 3,000 -34 Level Tampa TRACON
Mon 02:50:35 PM 28.1519 -82.7714 193° South 135 155 2,900 -33 Descending Miami Center
Mon 02:51:35 PM 28.1167 -82.7667 173° South 129 148 2,900 33 Level Tampa TRACON
Mon 02:53:35 PM 28.0500 -82.7667 180° South 130 150 3,000 25 Climbing Tampa TRACON
Mon 02:55:35 PM 27.9667 -82.7833 190° South 133 153 3,000  Level Tampa TRACON
Mon 02:56:35 PM 27.9333 -82.7833 180° South 126 145 3,000  Level Tampa TRACON
Mon 02:57:35 PM 27.9000 -82.7667 156° South 129 148 3,000 -50 Level Tampa TRACON
Mon 02:58:35 PM 27.8667 -82.7667 180° South 130 150 2,900 -50 Descending Tampa TRACON
Mon 02:59:35 PM 27.8333 -82.7667 180° South 130 150 2,900  Level Tampa TRACON
Mon 03:00:35 PM 27.8000 -82.7500 156° South 133 153 2,900 -330 Level Tampa TRACON
Mon 03:02:55 PM 27.7250 -82.7292 166° South 127 146 1,800 -298 Descending Miami Center
Mon 03:03:36 PM 27.7333 -82.7000 72° East 97 112 2,000 72 Climbing Tampa TRACON
Mon 03:05:42 PM 27.7667 -82.6667 42° Northeast 105 121 2,000 -33 Level Tampa TRACON
Mon 03:06:36 PM 27.7833 -82.6667 360° North 106 122 1,900 -158 Descending Tampa TRACON
Mon 03:07:36 PM 27.8167 -82.6667 360° North 118 136 1,700 -450 Descending Tampa TRACON
Mon 03:08:36 PM 27.8500 -82.6833 336° Northwest 127 146 1,000 -600 Descending Tampa TRACON
Mon 03:09:36 PM 27.8667 -82.6833 360° North 76 87 500 -318 Descending Tampa TRACON
Mon 03:11:07 PM 27.9083 -82.6869 356° North 96 110 200 -198 Descending Miami Center

Login

Don't have an account? Register now (free) for customized features, flight alerts, and more!